createdAt,value
2023-01-25T00:02:21.915Z,3.03
2023-01-25T00:04:50.924Z,3.06
2023-01-25T00:07:20.046Z,3.16
2023-01-25T00:09:50.547Z,3.10
2023-01-25T00:12:19.541Z,2.98
2023-01-25T00:14:49.104Z,3.15
2023-01-25T00:17:19.286Z,2.92
2023-01-25T00:19:48.944Z,2.86
2023-01-25T00:22:18.047Z,2.82
2023-01-25T00:24:47.611Z,2.96
2023-01-25T00:27:18.097Z,2.81
2023-01-25T00:29:47.163Z,2.78
2023-01-25T00:32:43.812Z,2.71
2023-01-25T00:35:14.283Z,2.72
2023-01-25T00:37:45.542Z,2.82
2023-01-25T00:40:14.868Z,2.70
2023-01-25T00:42:46.045Z,2.83
2023-01-25T00:45:15.747Z,3.00
2023-01-25T00:47:44.743Z,2.84
2023-01-25T00:50:13.705Z,2.72
2023-01-25T00:52:42.704Z,2.64
2023-01-25T00:55:13.133Z,2.76
2023-01-25T00:57:42.172Z,2.59
2023-01-25T01:00:14.182Z,2.60
2023-01-25T01:02:43.354Z,2.41
2023-01-25T01:05:12.784Z,2.47
2023-01-25T01:07:43.129Z,2.67
2023-01-25T01:10:14.969Z,2.60
2023-01-25T01:12:44.053Z,2.74
2023-01-25T01:15:16.607Z,2.52
2023-01-25T01:17:45.536Z,2.54
2023-01-25T01:20:15.216Z,2.69
2023-01-25T01:22:44.279Z,2.76
2023-01-25T01:25:14.701Z,2.83
2023-01-25T01:27:43.799Z,2.49
2023-01-25T01:30:13.613Z,2.77
2023-01-25T01:32:45.352Z,2.78
2023-01-25T01:35:14.435Z,2.72
2023-01-25T01:37:44.363Z,2.46
2023-01-25T01:40:16.459Z,2.52
2023-01-25T01:43:05.306Z,2.21
2023-01-25T01:45:56.112Z,2.25
2023-01-25T01:48:40.121Z,2.37
2023-01-25T01:51:19.717Z,2.09
2023-01-25T01:53:55.101Z,2.42
2023-01-25T01:56:31.936Z,2.35
2023-01-25T01:59:05.129Z,2.38
2023-01-25T02:01:35.259Z,2.34
2023-01-25T02:04:08.951Z,2.21
2023-01-25T02:06:45.689Z,2.27
2023-01-25T02:09:20.283Z,2.47
2023-01-25T02:11:51.289Z,2.60
2023-01-25T02:14:21.271Z,2.67
2023-01-25T02:16:51.009Z,2.75
2023-01-25T02:19:35.605Z,2.77
2023-01-25T02:22:10.565Z,2.85
2023-01-25T02:24:44.705Z,2.88
2023-01-25T02:27:15.648Z,2.75
2023-01-25T02:29:45.543Z,2.59
2023-01-25T02:32:15.242Z,2.25
2023-01-25T02:34:44.388Z,2.05
2023-01-25T02:37:16.438Z,1.99
2023-01-25T02:39:47.419Z,2.02
2023-01-25T02:42:17.952Z,2.00
2023-01-25T02:44:49.172Z,2.27
2023-01-25T02:47:18.219Z,2.34
2023-01-25T02:49:48.280Z,2.38
2023-01-25T02:52:17.908Z,2.31
2023-01-25T02:54:48.067Z,2.47
2023-01-25T02:57:18.559Z,2.22
2023-01-25T02:59:47.463Z,1.95
2023-01-25T03:02:17.870Z,1.89
2023-01-25T03:04:47.779Z,1.89
2023-01-25T03:07:17.345Z,2.11
2023-01-25T03:09:46.992Z,2.16
2023-01-25T03:12:17.489Z,2.19
2023-01-25T03:14:48.238Z,2.23
2023-01-25T03:17:17.282Z,2.31
2023-01-25T03:19:47.070Z,2.38
2023-01-25T03:22:16.661Z,2.50
2023-01-25T03:24:45.927Z,2.25
2023-01-25T03:27:18.821Z,2.33
2023-01-25T03:29:59.699Z,2.47
2023-01-25T03:32:33.251Z,2.29
2023-01-25T03:35:08.939Z,2.32
2023-01-25T03:37:38.711Z,2.40
2023-01-25T03:40:09.385Z,2.28
2023-01-25T03:42:41.367Z,2.06
2023-01-25T03:45:14.548Z,2.23
2023-01-25T03:47:43.684Z,2.24
2023-01-25T03:50:13.246Z,2.27
2023-01-25T03:52:46.654Z,2.32
2023-01-25T03:55:16.634Z,2.16
2023-01-25T03:57:50.166Z,2.09
2023-01-25T04:00:20.891Z,2.16
2023-01-25T04:02:58.227Z,2.24
2023-01-25T04:05:28.938Z,2.17
2023-01-25T04:07:57.962Z,2.27
2023-01-25T04:10:35.532Z,2.34
2023-01-25T04:13:07.456Z,2.24
2023-01-25T04:15:37.929Z,2.37
2023-01-25T04:18:15.904Z,2.49
2023-01-25T04:20:45.892Z,2.51
2023-01-25T04:23:14.928Z,2.53
2023-01-25T04:25:46.027Z,2.48
2023-01-25T04:28:20.092Z,2.45
2023-01-25T04:30:49.627Z,2.12
2023-01-25T04:33:19.899Z,1.89
2023-01-25T04:35:50.444Z,1.79
2023-01-25T04:38:22.239Z,1.72
2023-01-25T04:40:53.194Z,1.53
2023-01-25T04:43:24.356Z,1.60
2023-01-25T04:45:57.377Z,1.65
2023-01-25T04:48:33.548Z,1.46
2023-01-25T04:51:06.363Z,1.37
2023-01-25T04:53:37.237Z,1.43
2023-01-25T04:56:08.980Z,1.55
2023-01-25T04:58:48.299Z,1.63
2023-01-25T05:01:18.041Z,1.72
2023-01-25T05:03:47.081Z,1.93
2023-01-25T05:06:32.104Z,2.07
2023-01-25T05:09:01.108Z,2.17
2023-01-25T05:11:30.955Z,2.12
2023-01-25T05:14:09.476Z,2.03
2023-01-25T05:16:38.797Z,2.06
2023-01-25T05:19:10.804Z,2.17
2023-01-25T05:22:01.654Z,2.29
2023-01-25T05:24:42.205Z,2.32
2023-01-25T05:27:14.560Z,2.33
2023-01-25T05:29:57.459Z,2.09
2023-01-25T05:32:52.794Z,2.28
2023-01-25T05:35:21.986Z,2.27
2023-01-25T05:37:58.800Z,2.26
2023-01-25T05:40:28.693Z,1.95
2023-01-25T05:43:01.901Z,1.87
2023-01-25T05:45:34.165Z,1.75
2023-01-25T05:48:05.375Z,1.96
2023-01-25T05:50:35.308Z,1.91
2023-01-25T05:53:11.329Z,1.97
2023-01-25T05:55:41.528Z,1.83
2023-01-25T05:58:15.451Z,1.89
2023-01-25T06:00:46.810Z,1.68
2023-01-25T06:03:27.275Z,1.77
2023-01-25T06:05:57.871Z,1.80
2023-01-25T06:08:27.620Z,1.92
2023-01-25T06:10:56.706Z,1.88
2023-01-25T06:13:26.427Z,1.87
2023-01-25T06:15:59.099Z,1.90
2023-01-25T06:18:43.664Z,1.98
2023-01-25T06:21:31.422Z,1.81
2023-01-25T06:24:01.156Z,1.83
2023-01-25T06:26:31.971Z,1.54
2023-01-25T06:29:01.070Z,1.74
2023-01-25T06:31:31.793Z,1.91
2023-01-25T06:34:01.285Z,2.01
2023-01-25T06:36:31.786Z,2.09
2023-01-25T06:39:00.700Z,2.08
2023-01-25T06:41:29.886Z,2.04
2023-01-25T06:43:58.998Z,2.22
2023-01-25T06:46:28.234Z,2.27
2023-01-25T06:48:58.833Z,2.36
2023-01-25T06:51:28.024Z,2.18
2023-01-25T06:53:57.111Z,2.30
2023-01-25T06:56:26.884Z,2.12
2023-01-25T06:58:56.681Z,2.19
2023-01-25T07:01:27.718Z,1.99
2023-01-25T07:04:00.827Z,1.81
2023-01-25T07:06:35.037Z,1.50
2023-01-25T07:09:05.726Z,1.50
2023-01-25T07:11:34.944Z,1.53
2023-01-25T07:14:04.248Z,1.61
2023-01-25T07:16:37.219Z,1.70
2023-01-25T07:19:11.582Z,1.75
2023-01-25T07:21:40.730Z,1.62
2023-01-25T07:24:16.095Z,1.67
2023-01-25T07:26:45.130Z,1.37
2023-01-25T07:29:15.979Z,1.26
2023-01-25T07:31:45.132Z,1.31
2023-01-25T07:34:15.806Z,1.47
2023-01-25T07:36:45.237Z,1.50
2023-01-25T07:39:15.036Z,1.57
2023-01-25T07:41:44.055Z,1.75
2023-01-25T07:44:20.834Z,1.60
2023-01-25T07:46:52.744Z,1.58
2023-01-25T07:49:24.737Z,1.89
2023-01-25T07:51:53.757Z,2.08
2023-01-25T07:54:22.867Z,2.01
2023-01-25T07:56:51.945Z,1.89
2023-01-25T07:59:20.967Z,1.95
2023-01-25T08:01:50.066Z,1.56
2023-01-25T08:04:19.208Z,1.88
2023-01-25T08:06:49.788Z,2.00
2023-01-25T08:09:20.998Z,1.95
2023-01-25T08:11:50.505Z,1.90
2023-01-25T08:14:19.588Z,1.89
2023-01-25T08:16:48.813Z,2.04
2023-01-25T08:19:20.278Z,2.16
2023-01-25T08:21:50.898Z,2.29
2023-01-25T08:24:21.080Z,2.39
2023-01-25T08:26:50.161Z,2.37
2023-01-25T08:29:19.430Z,2.40
2023-01-25T08:31:48.545Z,2.60
2023-01-25T08:34:17.625Z,2.81
2023-01-25T08:36:46.788Z,2.89
2023-01-25T08:39:18.403Z,2.44
2023-01-25T08:41:47.556Z,2.53
2023-01-25T08:44:16.713Z,2.85
2023-01-25T08:46:46.520Z,2.84
2023-01-25T08:49:15.676Z,2.77
2023-01-25T08:51:46.493Z,2.57
2023-01-25T08:54:17.552Z,2.60
2023-01-25T08:56:46.808Z,2.75
2023-01-25T08:59:15.844Z,2.73
2023-01-25T09:01:45.555Z,2.88
2023-01-25T09:04:14.642Z,2.89
2023-01-25T09:06:43.683Z,3.08
2023-01-25T09:09:13.755Z,3.21
2023-01-25T09:11:44.204Z,3.24
2023-01-25T09:14:13.381Z,3.27
2023-01-25T09:16:42.535Z,3.15
2023-01-25T09:19:12.804Z,3.20
2023-01-25T09:21:42.016Z,3.13
2023-01-25T09:24:11.182Z,3.12
2023-01-25T09:26:45.902Z,3.22
2023-01-25T09:29:19.164Z,3.35
2023-01-25T09:31:48.369Z,3.31
2023-01-25T09:34:32.435Z,3.34
2023-01-25T09:37:01.505Z,3.43
2023-01-25T09:39:30.623Z,3.45
2023-01-25T09:42:38.290Z,3.15
2023-01-25T09:45:29.060Z,3.34
2023-01-25T09:48:06.125Z,3.16
2023-01-25T09:50:38.678Z,3.18
2023-01-25T09:53:32.687Z,3.04
2023-01-25T09:56:05.998Z,3.40
2023-01-25T09:58:39.655Z,3.03
2023-01-25T10:01:38.455Z,3.17
2023-01-25T10:04:16.398Z,2.81
2023-01-25T10:07:00.233Z,3.04
2023-01-25T10:09:41.415Z,3.16
2023-01-25T10:12:18.202Z,3.32
2023-01-25T10:14:47.399Z,3.35
2023-01-25T10:17:29.282Z,3.48
2023-01-25T10:20:17.804Z,3.53
2023-01-25T10:22:54.998Z,3.71
2023-01-25T10:25:36.878Z,3.54
2023-01-25T10:28:25.307Z,3.66
2023-01-25T10:30:59.346Z,3.75
2023-01-25T10:33:34.901Z,3.36
2023-01-25T10:36:06.983Z,3.63
2023-01-25T10:38:43.236Z,3.74
2023-01-25T10:41:20.123Z,3.62
2023-01-25T10:44:09.263Z,3.36
2023-01-25T10:46:40.073Z,3.08
2023-01-25T10:49:24.890Z,3.14
2023-01-25T10:51:53.907Z,3.29
2023-01-25T10:54:24.792Z,3.55
2023-01-25T10:56:55.172Z,3.33
2023-01-25T10:59:27.189Z,3.46
2023-01-25T11:01:57.590Z,3.48
2023-01-25T11:04:34.288Z,3.61
2023-01-25T11:07:05.298Z,3.56
2023-01-25T11:09:40.089Z,3.27
2023-01-25T11:12:27.037Z,3.48
2023-01-25T11:14:55.989Z,3.40
2023-01-25T11:17:32.113Z,3.25
2023-01-25T11:20:18.746Z,3.60
2023-01-25T11:22:53.105Z,3.42
2023-01-25T11:25:34.535Z,3.75
2023-01-25T11:28:17.864Z,3.64
2023-01-25T11:30:47.288Z,3.71
2023-01-25T11:33:19.441Z,3.49
2023-01-25T11:36:12.215Z,3.62
2023-01-25T11:38:52.179Z,3.99
2023-01-25T11:41:30.521Z,3.92
2023-01-25T11:44:15.132Z,4.10
2023-01-25T11:47:00.096Z,4.08
2023-01-25T11:49:52.320Z,4.25
2023-01-25T11:52:35.536Z,4.17
2023-01-25T11:55:16.175Z,3.96
2023-01-25T11:57:57.184Z,3.91
2023-01-25T12:00:48.690Z,3.69
2023-01-25T12:03:37.274Z,3.91
2023-01-25T12:06:15.171Z,3.97
2023-01-25T12:09:09.398Z,4.10
2023-01-25T12:11:59.790Z,4.19
2023-01-25T12:14:42.248Z,4.24
2023-01-25T12:17:26.917Z,4.22
2023-01-25T12:20:12.517Z,4.50
2023-01-25T12:22:57.076Z,4.21
2023-01-25T12:25:37.356Z,4.27
2023-01-25T12:28:15.585Z,4.35
2023-01-25T12:30:52.908Z,4.43
2023-01-25T12:33:26.893Z,4.25
2023-01-25T12:36:02.859Z,4.29
2023-01-25T12:38:37.269Z,4.09
2023-01-25T12:41:15.732Z,4.26
2023-01-25T12:43:49.886Z,4.22
2023-01-25T12:46:32.673Z,4.41
2023-01-25T12:49:07.872Z,4.30
2023-01-25T12:51:41.946Z,4.47
2023-01-25T12:54:19.199Z,4.31
2023-01-25T12:56:58.708Z,4.47
2023-01-25T12:59:36.331Z,4.35
2023-01-25T13:02:24.565Z,4.05
2023-01-25T13:05:03.687Z,3.99
2023-01-25T13:07:40.571Z,4.10
2023-01-25T13:10:18.693Z,3.99
2023-01-25T13:12:56.679Z,3.93
2023-01-25T13:15:42.679Z,3.88
2023-01-25T13:18:42.355Z,4.05
2023-01-25T13:21:41.825Z,4.06
2023-01-25T13:24:22.347Z,4.07
2023-01-25T13:27:26.028Z,4.18
2023-01-25T13:30:04.503Z,4.34
2023-01-25T13:32:58.094Z,4.12
2023-01-25T13:35:29.911Z,4.07
2023-01-25T13:38:01.298Z,4.16
2023-01-25T13:40:34.573Z,3.99
2023-01-25T13:43:04.118Z,4.01
2023-01-25T13:45:37.624Z,3.73
2023-01-25T13:48:16.935Z,3.70
2023-01-25T13:50:50.342Z,3.63
2023-01-25T13:53:21.893Z,3.68
2023-01-25T13:55:53.515Z,3.58
2023-01-25T13:58:25.803Z,3.33
2023-01-25T14:00:58.717Z,3.20
2023-01-25T14:03:31.427Z,3.24
2023-01-25T14:06:02.760Z,3.21
2023-01-25T14:08:32.672Z,3.27
2023-01-25T14:11:02.009Z,3.11
2023-01-25T14:13:31.141Z,3.20
2023-01-25T14:16:04.605Z,3.28
2023-01-25T14:18:38.163Z,3.21
2023-01-25T14:21:19.856Z,3.11
2023-01-25T14:23:50.018Z,3.17
2023-01-25T14:26:22.592Z,3.00
2023-01-25T14:29:01.336Z,2.95
2023-01-25T14:31:36.609Z,2.90
2023-01-25T14:34:06.436Z,2.81
2023-01-25T14:36:36.425Z,2.72
2023-01-25T14:39:18.414Z,2.92
2023-01-25T14:42:01.046Z,3.02
2023-01-25T14:44:31.283Z,2.72
2023-01-25T14:47:33.939Z,2.83
2023-01-25T14:50:33.011Z,2.79
2023-01-25T14:53:10.191Z,2.74
2023-01-25T14:55:39.516Z,2.73
2023-01-25T14:58:12.889Z,2.72
2023-01-25T15:00:44.253Z,2.51
2023-01-25T15:03:18.332Z,2.65
2023-01-25T15:05:49.174Z,2.41
2023-01-25T15:08:29.899Z,2.42
2023-01-25T15:11:32.128Z,2.52
2023-01-25T15:14:04.842Z,2.49
2023-01-25T15:16:37.397Z,2.46
2023-01-25T15:19:23.147Z,2.45
2023-01-25T15:21:52.227Z,2.50
2023-01-25T15:24:22.663Z,2.61
2023-01-25T15:26:53.654Z,2.59
2023-01-25T15:29:25.995Z,2.53
2023-01-25T15:31:57.074Z,2.42
2023-01-25T15:34:30.498Z,2.56
2023-01-25T15:36:59.567Z,2.68
2023-01-25T15:39:29.112Z,2.52
2023-01-25T15:41:58.747Z,2.49
2023-01-25T15:44:28.004Z,2.49
2023-01-25T15:46:57.383Z,2.58
2023-01-25T15:49:31.776Z,2.44
2023-01-25T15:52:00.868Z,2.35
2023-01-25T15:54:30.851Z,2.38
2023-01-25T15:57:01.661Z,2.28
2023-01-25T15:59:31.012Z,2.23
2023-01-25T16:02:00.290Z,2.22
2023-01-25T16:04:30.829Z,2.32
2023-01-25T16:07:01.253Z,2.05
2023-01-25T16:09:33.554Z,2.06
2023-01-25T16:12:03.300Z,2.09
2023-01-25T16:14:32.968Z,2.17
2023-01-25T16:17:04.402Z,2.36
2023-01-25T16:19:35.824Z,2.47
2023-01-25T16:22:04.870Z,2.40
2023-01-25T16:24:34.021Z,2.46
2023-01-25T16:27:03.910Z,2.50
2023-01-25T16:29:33.050Z,2.51
2023-01-25T16:32:02.792Z,2.44
2023-01-25T16:34:32.009Z,2.45
2023-01-25T16:37:03.426Z,2.49
2023-01-25T16:39:33.673Z,2.27
2023-01-25T16:42:02.696Z,2.11
2023-01-25T16:44:31.650Z,2.23
2023-01-25T16:47:01.397Z,2.16
2023-01-25T16:49:30.856Z,1.98
2023-01-25T16:52:00.839Z,1.88
2023-01-25T16:54:31.679Z,2.07
2023-01-25T16:57:08.697Z,2.11
2023-01-25T16:59:48.087Z,2.00
2023-01-25T17:02:17.278Z,2.14
2023-01-25T17:04:46.413Z,2.09
2023-01-25T17:07:15.609Z,2.16
2023-01-25T17:09:46.041Z,2.24
2023-01-25T17:12:15.144Z,1.96
2023-01-25T17:14:44.342Z,2.15
2023-01-25T17:17:13.531Z,2.14
2023-01-25T17:19:42.809Z,2.22
2023-01-25T17:22:12.095Z,2.11
2023-01-25T17:24:41.709Z,2.06
2023-01-25T17:27:12.103Z,2.14
2023-01-25T17:29:41.394Z,2.04
2023-01-25T17:32:11.390Z,2.14
2023-01-25T17:34:40.731Z,2.13
2023-01-25T17:37:09.858Z,2.17
2023-01-25T17:39:39.173Z,2.07
2023-01-25T17:42:11.647Z,2.12
2023-01-25T17:44:42.246Z,2.18
2023-01-25T17:47:11.320Z,2.04
2023-01-25T17:49:40.471Z,2.01
2023-01-25T17:52:09.544Z,1.96
2023-01-25T17:54:40.435Z,1.96
2023-01-25T17:57:10.687Z,1.93
2023-01-25T17:59:39.767Z,1.87
2023-01-25T18:02:23.768Z,1.93
2023-01-25T18:04:53.162Z,1.62
2023-01-25T18:07:22.351Z,1.68
2023-01-25T18:09:52.101Z,1.70
2023-01-25T18:12:21.185Z,1.70
2023-01-25T18:14:50.288Z,1.74
2023-01-25T18:17:21.068Z,1.66
2023-01-25T18:19:50.473Z,1.76
2023-01-25T18:22:19.650Z,1.69
2023-01-25T18:24:49.037Z,1.80
2023-01-25T18:27:21.282Z,1.72
2023-01-25T18:29:56.773Z,1.85
2023-01-25T18:32:27.335Z,1.60
2023-01-25T18:34:56.477Z,1.58
2023-01-25T18:37:29.638Z,1.61
2023-01-25T18:39:58.877Z,1.71
2023-01-25T18:42:28.529Z,1.69
2023-01-25T18:44:57.818Z,1.87
2023-01-25T18:47:29.529Z,1.85
2023-01-25T18:49:58.817Z,1.60
2023-01-25T18:52:28.005Z,1.65
2023-01-25T18:54:57.777Z,1.73
2023-01-25T18:57:26.789Z,1.71
2023-01-25T18:59:59.579Z,1.66
2023-01-25T19:02:30.539Z,1.66
2023-01-25T19:05:01.533Z,1.66
2023-01-25T19:07:32.252Z,1.67
2023-01-25T19:10:01.248Z,1.65
2023-01-25T19:12:31.912Z,1.57
2023-01-25T19:15:01.755Z,1.71
2023-01-25T19:17:35.288Z,1.75
2023-01-25T19:20:05.630Z,1.64
2023-01-25T19:22:34.722Z,1.66
2023-01-25T19:25:04.429Z,1.63
2023-01-25T19:27:33.529Z,1.64
2023-01-25T19:30:02.820Z,1.65
2023-01-25T19:32:35.148Z,1.66
2023-01-25T19:35:06.618Z,1.73
2023-01-25T19:37:35.731Z,1.51
2023-01-25T19:40:05.258Z,1.67
2023-01-25T19:42:34.520Z,1.62
2023-01-25T19:45:03.591Z,1.62
2023-01-25T19:47:38.788Z,1.60
2023-01-25T19:50:09.247Z,1.70
2023-01-25T19:52:39.089Z,1.71
2023-01-25T19:55:09.592Z,1.68
2023-01-25T19:57:39.152Z,1.66
2023-01-25T20:00:10.484Z,1.72
2023-01-25T20:02:42.697Z,1.69
2023-01-25T20:05:12.096Z,1.62
2023-01-25T20:07:42.424Z,1.70
2023-01-25T20:10:13.058Z,1.77
2023-01-25T20:12:42.105Z,1.81
2023-01-25T20:15:14.661Z,1.75
2023-01-25T20:17:45.441Z,1.76
2023-01-25T20:20:14.514Z,1.77
2023-01-25T20:22:43.690Z,1.76
2023-01-25T20:25:12.792Z,1.74
2023-01-25T20:27:41.922Z,1.64
2023-01-25T20:30:12.116Z,1.67
2023-01-25T20:32:41.760Z,1.71
2023-01-25T20:35:12.933Z,1.66
2023-01-25T20:37:42.693Z,1.76
2023-01-25T20:40:13.035Z,1.83
2023-01-25T20:42:42.136Z,1.75
2023-01-25T20:45:17.182Z,1.73
2023-01-25T20:47:46.494Z,1.59
2023-01-25T20:50:17.583Z,1.62
2023-01-25T20:52:47.305Z,1.43
2023-01-25T20:55:16.389Z,1.34
2023-01-25T20:57:46.860Z,1.28
2023-01-25T21:00:17.318Z,1.09
2023-01-25T21:02:47.545Z,1.22
2023-01-25T21:05:18.823Z,1.24
2023-01-25T21:07:47.972Z,1.22
2023-01-25T21:10:17.911Z,0.96
2023-01-25T21:12:47.116Z,1.06
2023-01-25T21:15:17.961Z,1.06
2023-01-25T21:17:52.319Z,1.03
2023-01-25T21:20:23.042Z,1.17
2023-01-25T21:22:52.116Z,1.26
2023-01-25T21:25:21.630Z,1.37
2023-01-25T21:27:50.750Z,1.08
2023-01-25T21:30:23.000Z,1.05
2023-01-25T21:32:52.228Z,1.14
2023-01-25T21:35:22.836Z,0.93
2023-01-25T21:37:52.472Z,0.87
2023-01-25T21:40:22.185Z,0.86
2023-01-25T21:42:51.348Z,0.89
2023-01-25T21:45:37.696Z,0.68
2023-01-25T21:48:07.387Z,0.69
2023-01-25T21:50:56.053Z,0.77
2023-01-25T21:53:25.128Z,0.77
2023-01-25T21:55:57.770Z,0.80
2023-01-25T21:58:26.771Z,0.70
2023-01-25T22:00:55.896Z,0.69
2023-01-25T22:03:25.048Z,0.52
2023-01-25T22:05:57.306Z,0.57
2023-01-25T22:08:26.326Z,0.72
2023-01-25T22:11:02.987Z,0.60
2023-01-25T22:13:32.505Z,0.64
2023-01-25T22:16:02.535Z,0.73
2023-01-25T22:18:37.003Z,0.69
2023-01-25T22:21:09.398Z,0.55
2023-01-25T22:23:38.446Z,0.69
2023-01-25T22:26:09.386Z,0.68
2023-01-25T22:28:46.573Z,0.68
2023-01-25T22:31:16.174Z,0.66
2023-01-25T22:33:45.839Z,0.50
2023-01-25T22:36:17.612Z,0.61
2023-01-25T22:38:47.258Z,0.65
2023-01-25T22:41:17.704Z,0.66
2023-01-25T22:43:46.994Z,0.70
2023-01-25T22:46:18.179Z,0.67
2023-01-25T22:48:47.921Z,0.57
2023-01-25T22:51:20.353Z,0.67
2023-01-25T22:53:49.535Z,0.60
2023-01-25T22:56:19.947Z,0.58
2023-01-25T22:58:49.210Z,0.68
2023-01-25T23:01:21.897Z,0.77
2023-01-25T23:03:52.048Z,0.58
2023-01-25T23:06:25.946Z,0.70
2023-01-25T23:08:56.842Z,0.65
2023-01-25T23:11:32.816Z,0.53
2023-01-25T23:14:19.192Z,0.58
2023-01-25T23:16:49.007Z,0.63
2023-01-25T23:19:20.108Z,0.68
2023-01-25T23:21:50.596Z,0.63
2023-01-25T23:24:19.730Z,0.61
2023-01-25T23:26:49.903Z,0.45
2023-01-25T23:29:18.978Z,0.29
2023-01-25T23:31:48.133Z,0.46
2023-01-25T23:34:17.722Z,0.37
2023-01-25T23:36:47.369Z,0.43
2023-01-25T23:39:18.504Z,0.43
2023-01-25T23:41:49.282Z,0.35
2023-01-25T23:44:18.862Z,0.43
2023-01-25T23:46:48.614Z,0.47
2023-01-25T23:49:18.243Z,0.43
2023-01-25T23:51:47.921Z,0.36
2023-01-25T23:54:18.873Z,0.38
2023-01-25T23:56:47.912Z,0.46
2023-01-25T23:59:17.500Z,0.45
